Airfield :
LOGIN :

Register | Disclaimer

   EN    FR    IT 

 










Legend :    VFR   Marginal VFR   IFR   Intensive IFR   Very Intensive IFR
Visi :
Ceiling :
>= 8 km
>= 3000ft
5 to 8 km
1000 to 3000 ft
1500m to 5 km
500 to 1000 ft
800 to 1500m
200 to 500 ft
< 800m
< 200 ft
Symbols :   Thunderstorms  Fog  Heavy snow  Heavy precipitations  Wind > 20 kt
SIGMETs :     Misc.  Thunderstorms  Icing  Turbulence  Mountain Waves  Volcanic Ashes







- Airport Elevation : 21 ft
- IATA code : BJV


LTFE - Bodrum

CURRENT METAR :
  • 192220Z 14004KT 100V180 CAVOK 20/18 Q1009 NOSIG RMK RWY10 11004KT 090V150

EXPIRED METARs :
  • 192150Z VRB04KT 9999 FEW035 SCT100 21/18 Q1009 NOSIG RMK RWY10 12005KT 090V150
  • 192120Z VRB03KT 9999 FEW035 SCT200 21/18 Q1009 NOSIG RMK RWY10 06005KT 010V110
  • 192050Z 09004KT 9999 FEW035 SCT200 21/18 Q1009 NOSIG RMK RWY10 08006KT
  • 192020Z 18004KT 140V230 9999 FEW035 SCT200 21/19 Q1009 NOSIG RMK RWY10 04004KT 360V070
  • 191950Z 07006KT 030V100 9999 FEW035 SCT200 21/19 Q1009 NOSIG RMK RWY10 08005KT 030V110

TAF TAF LTFE
Valid from the 19 at 18:00 until the 20 at 18:00 UTC


191640Z 1918/2018 VRB02KT 9999 FEW035
BECMG 1920/1922 CAVOK
BECMG 2008/2010 26015KT FEW020CB BKN030
PROB40
TEMPO 2012/2015 TS
BECMG 2015/2018 VRB02KT
No reported NOTAMs for that airfield.



MET'MAP, your aeronautical weather chart ! - Copyright ORBIFLY December 2007 - Disclaimer

ORBIFLY MET'MAP TEAM :

Programming & Development : Alexandra Zaïnal
Concept & Development : Baudouin d'Aumeries
Co-Development & Prog : Marc-Olivier Méhu
Technical & hardware support : Manuel Goepfert

Contact : metmap@orbifly.com




SOURCES & CREDITS :

   NOAA